Good Samaritan Village, Nebraska
Current Conditions -  °F | °C
As of 8:53 AM on Friday 31 Oct 2014 (Local Time) from KHSI Reporting Station
Clear Clear  
Wind Chill: 21°   Ceiling: Unl
Heat Index: 28°   Visibility: 10mi
Dew Point: 18°   Wind: 7mph
Humidity: 66%   Direction: 10°N
Pressure: 30.56"   Gusts: NA
Location:  40.5551°N, 98.369°W
Report Text: KHSI 311353Z AUTO 01006KT 10SM CLR M02/M08 A3056 RMK AO2 SLP365 T10221078
Loading
Personal Weather Stations






























Interactive Weather Map
Tropical Storm Tracking
New forecast layout! Learn more

10-Day Weather Forecast

Advertisements
Track Severe Weather on mobile